createdAt,value
2018-07-20T00:00:02.542Z,15.90
2018-07-20T00:02:31.690Z,15.90
2018-07-20T00:05:00.855Z,16.00
2018-07-20T00:07:29.953Z,16.10
2018-07-20T00:09:59.107Z,16.10
2018-07-20T00:12:28.260Z,16.10
2018-07-20T00:14:57.453Z,16.20
2018-07-20T00:19:55.257Z,16.20
2018-07-20T00:22:24.395Z,16.20
2018-07-20T00:24:53.592Z,16.20
2018-07-20T00:27:22.730Z,16.20
2018-07-20T00:29:51.887Z,16.20
2018-07-20T00:32:21.023Z,16.30
2018-07-20T00:34:50.155Z,16.30
2018-07-20T00:37:19.431Z,16.30
2018-07-20T00:39:48.620Z,16.40
2018-07-20T00:42:17.765Z,16.30
2018-07-20T00:44:46.857Z,16.20
2018-07-20T00:47:16.012Z,16.20
2018-07-20T00:49:45.264Z,16.20
2018-07-20T00:52:14.429Z,16.30
2018-07-20T00:54:43.574Z,16.30
2018-07-20T00:57:12.691Z,16.30
2018-07-20T00:59:41.800Z,16.20
2018-07-20T01:02:11.310Z,16.10
2018-07-20T01:04:40.494Z,16.10
2018-07-20T01:07:09.804Z,16.00
2018-07-20T01:09:39.012Z,16.00
2018-07-20T01:12:11.079Z,16.00
2018-07-20T01:14:40.248Z,16.00
2018-07-20T01:17:09.444Z,16.00
2018-07-20T01:19:38.564Z,16.00
2018-07-20T01:22:07.981Z,16.00
2018-07-20T01:24:37.112Z,16.00
2018-07-20T01:27:07.097Z,16.00
2018-07-20T01:29:36.256Z,15.90
2018-07-20T01:32:05.419Z,15.80
2018-07-20T01:34:34.519Z,15.80
2018-07-20T01:37:03.752Z,15.80
2018-07-20T01:39:32.872Z,15.90
2018-07-20T01:42:02.024Z,15.90
2018-07-20T01:44:31.177Z,16.00
2018-07-20T01:47:00.303Z,16.00
2018-07-20T01:49:29.505Z,16.00
2018-07-20T01:51:58.645Z,16.00
2018-07-20T01:54:27.867Z,16.00
2018-07-20T01:56:56.961Z,15.90
2018-07-20T01:59:26.140Z,15.90
2018-07-20T02:01:55.276Z,15.90
2018-07-20T02:04:25.114Z,16.10
2018-07-20T02:06:54.363Z,16.10
2018-07-20T02:09:23.595Z,16.10
2018-07-20T02:11:52.747Z,16.00
2018-07-20T02:14:21.924Z,16.00
2018-07-20T02:16:51.302Z,16.00
2018-07-20T02:19:20.441Z,16.00
2018-07-20T02:21:49.565Z,16.00
2018-07-20T02:24:18.666Z,16.00
2018-07-20T02:26:47.787Z,16.00
2018-07-20T02:29:16.907Z,16.00
2018-07-20T02:31:46.017Z,16.00
2018-07-20T02:34:15.152Z,16.10
2018-07-20T02:36:44.276Z,16.20
2018-07-20T02:39:13.892Z,16.10
2018-07-20T02:41:43.313Z,16.20
2018-07-20T02:44:12.429Z,16.30
2018-07-20T02:46:41.579Z,16.20
2018-07-20T02:49:10.823Z,16.20
2018-07-20T02:51:39.957Z,16.10
2018-07-20T02:54:09.166Z,16.00
2018-07-20T02:56:38.369Z,16.00
2018-07-20T02:59:08.026Z,16.00
2018-07-20T03:01:37.216Z,16.00
2018-07-20T03:04:06.479Z,16.00
2018-07-20T03:06:36.778Z,16.10
2018-07-20T03:09:10.063Z,16.10
2018-07-20T03:14:08.388Z,16.00
2018-07-20T03:16:37.584Z,16.00
2018-07-20T03:19:07.112Z,15.90
2018-07-20T03:21:36.347Z,15.80
2018-07-20T03:24:05.569Z,15.80
2018-07-20T03:29:03.645Z,15.80
2018-07-20T03:31:32.742Z,15.80
2018-07-20T03:34:01.870Z,15.90
2018-07-20T03:36:30.976Z,15.90
2018-07-20T03:39:00.131Z,15.80
2018-07-20T03:41:29.890Z,15.80
2018-07-20T03:43:58.979Z,15.80
2018-07-20T03:46:28.130Z,15.90
2018-07-20T03:48:57.318Z,15.90
2018-07-20T03:53:55.176Z,15.90
2018-07-20T03:56:24.364Z,15.90
2018-07-20T03:58:53.523Z,15.90
2018-07-20T04:01:22.718Z,15.90
2018-07-20T04:03:51.839Z,15.90
2018-07-20T04:06:21.002Z,15.90
2018-07-20T04:08:50.113Z,15.90
2018-07-20T04:11:19.263Z,15.90
2018-07-20T04:13:48.411Z,15.90
2018-07-20T04:16:17.571Z,15.90
2018-07-20T04:18:46.720Z,15.90
2018-07-20T04:21:15.841Z,15.90
2018-07-20T04:23:44.935Z,15.90
2018-07-20T04:26:14.107Z,15.80
2018-07-20T04:28:43.247Z,15.80
2018-07-20T04:31:12.402Z,15.90
2018-07-20T04:33:41.476Z,15.90
2018-07-20T04:36:10.640Z,15.90
2018-07-20T04:38:39.839Z,16.00
2018-07-20T04:41:09.510Z,16.00
2018-07-20T04:43:38.616Z,16.00
2018-07-20T04:46:07.815Z,16.00
2018-07-20T04:48:36.995Z,16.10
2018-07-20T04:51:06.354Z,16.20
2018-07-20T04:53:35.616Z,16.20
2018-07-20T04:58:33.650Z,16.50
2018-07-20T05:01:02.807Z,16.60
2018-07-20T05:03:31.960Z,16.80
2018-07-20T05:06:01.167Z,16.80
2018-07-20T05:08:30.200Z,16.90
2018-07-20T05:10:59.435Z,16.90
2018-07-20T05:13:28.596Z,16.90
2018-07-20T05:15:57.796Z,16.90
2018-07-20T05:18:26.968Z,17.00
2018-07-20T05:20:56.126Z,17.10
2018-07-20T05:23:25.256Z,17.10
2018-07-20T05:25:54.386Z,17.10
2018-07-20T05:28:23.605Z,17.10
2018-07-20T05:30:53.668Z,17.20
2018-07-20T05:33:22.756Z,17.20
2018-07-20T05:35:51.883Z,17.30
2018-07-20T05:38:21.024Z,17.20
2018-07-20T05:40:50.319Z,17.20
2018-07-20T05:43:19.463Z,17.20
2018-07-20T05:45:48.561Z,17.40
2018-07-20T05:48:17.696Z,17.60
2018-07-20T05:50:46.844Z,17.70
2018-07-20T05:53:16.013Z,17.60
2018-07-20T05:55:45.129Z,17.70
2018-07-20T05:58:14.233Z,17.70
2018-07-20T06:00:43.390Z,17.80
2018-07-20T06:03:12.528Z,17.90
2018-07-20T06:05:41.827Z,18.00
2018-07-20T06:08:10.916Z,18.00
2018-07-20T06:10:40.169Z,18.10
2018-07-20T06:13:09.383Z,18.20
2018-07-20T06:15:38.502Z,18.20
2018-07-20T06:18:07.641Z,18.30
2018-07-20T06:20:36.769Z,18.30
2018-07-20T06:23:06.046Z,18.40
2018-07-20T06:25:35.179Z,18.50
2018-07-20T06:28:04.326Z,18.50
2018-07-20T06:30:33.534Z,18.50
2018-07-20T06:33:03.441Z,18.50
2018-07-20T06:35:32.594Z,18.50
2018-07-20T06:38:01.762Z,18.30
2018-07-20T06:40:30.859Z,18.10
2018-07-20T06:42:59.997Z,18.10
2018-07-20T06:45:29.178Z,18.40
2018-07-20T06:47:58.410Z,18.60
2018-07-20T06:50:27.622Z,18.60
2018-07-20T06:52:56.806Z,18.70
2018-07-20T06:55:26.008Z,18.70
2018-07-20T06:57:55.202Z,18.80
2018-07-20T07:00:24.550Z,19.00
2018-07-20T07:02:53.717Z,19.10
2018-07-20T07:05:22.848Z,19.30
2018-07-20T07:07:51.936Z,19.40
2018-07-20T07:10:21.156Z,19.60
2018-07-20T07:12:50.273Z,19.90
2018-07-20T07:15:19.834Z,20.00
2018-07-20T07:17:48.855Z,20.10
2018-07-20T07:20:17.990Z,20.10
2018-07-20T07:22:47.601Z,20.10
2018-07-20T07:25:16.865Z,20.10
2018-07-20T07:27:45.984Z,20.30
2018-07-20T07:30:15.140Z,20.10
2018-07-20T07:32:44.231Z,20.10
2018-07-20T07:35:13.423Z,20.00
2018-07-20T07:37:42.558Z,20.10
2018-07-20T07:40:11.693Z,20.00
2018-07-20T07:42:40.944Z,20.20
2018-07-20T07:45:10.227Z,20.30
2018-07-20T07:47:40.014Z,20.30
2018-07-20T07:50:09.173Z,20.50
2018-07-20T07:52:38.353Z,20.50
2018-07-20T07:55:07.559Z,20.60
2018-07-20T07:57:36.671Z,20.70
2018-07-20T08:00:06.023Z,20.80
2018-07-20T08:05:03.994Z,20.80
2018-07-20T08:07:33.243Z,20.80
2018-07-20T08:10:02.640Z,20.90
2018-07-20T08:12:31.618Z,21.10
2018-07-20T08:15:01.536Z,21.20
2018-07-20T08:17:31.268Z,21.30
2018-07-20T08:20:00.481Z,21.30
2018-07-20T08:22:29.603Z,21.50
2018-07-20T08:24:58.751Z,21.60
2018-07-20T08:27:27.875Z,21.50
2018-07-20T08:29:57.019Z,21.60
2018-07-20T08:32:26.140Z,21.70
2018-07-20T08:34:55.419Z,21.70
2018-07-20T08:37:24.724Z,21.60
2018-07-20T08:39:53.980Z,21.70
2018-07-20T08:42:23.088Z,21.80
2018-07-20T08:44:52.257Z,21.90
2018-07-20T08:47:21.481Z,22.00
2018-07-20T08:49:50.634Z,21.80
2018-07-20T08:52:19.946Z,22.10
2018-07-20T08:54:49.114Z,22.50
2018-07-20T08:57:18.364Z,22.60
2018-07-20T08:59:47.828Z,22.80
2018-07-20T09:02:17.733Z,22.90
2018-07-20T09:07:15.621Z,22.70
2018-07-20T09:12:13.454Z,23.00
2018-07-20T09:14:42.604Z,23.00
2018-07-20T09:17:11.932Z,23.30
2018-07-20T09:19:41.044Z,23.30
2018-07-20T09:22:10.273Z,23.50
2018-07-20T09:24:39.510Z,23.50
2018-07-20T09:27:08.791Z,23.20
2018-07-20T09:29:37.976Z,23.20
2018-07-20T09:32:07.123Z,23.60
2018-07-20T09:34:36.328Z,23.40
2018-07-20T09:37:05.609Z,23.80
2018-07-20T09:39:34.844Z,24.10
2018-07-20T09:42:04.835Z,24.20
2018-07-20T09:44:33.963Z,24.40
2018-07-20T09:47:03.303Z,24.60
2018-07-20T09:49:33.669Z,24.50
2018-07-20T09:52:02.819Z,24.80
2018-07-20T09:54:32.122Z,24.10
2018-07-20T09:57:01.269Z,24.00
2018-07-20T09:59:30.597Z,24.30
2018-07-20T10:01:59.809Z,24.80
2018-07-20T10:04:29.206Z,25.00
2018-07-20T10:06:58.333Z,25.00
2018-07-20T10:09:27.553Z,24.40
2018-07-20T10:11:56.717Z,23.80
2018-07-20T10:14:25.927Z,23.70
2018-07-20T10:16:55.056Z,24.00
2018-07-20T10:19:24.310Z,24.00
2018-07-20T10:21:53.486Z,23.70
2018-07-20T10:24:22.785Z,24.10
2018-07-20T10:26:51.999Z,24.60
2018-07-20T10:29:21.260Z,24.90
2018-07-20T10:31:57.227Z,25.30
2018-07-20T10:34:26.485Z,25.70
2018-07-20T10:36:55.718Z,25.60
2018-07-20T10:39:24.873Z,25.20
2018-07-20T10:41:54.186Z,25.50
2018-07-20T10:44:23.336Z,25.80
2018-07-20T10:46:52.568Z,25.60
2018-07-20T10:49:21.759Z,25.00
2018-07-20T10:51:50.964Z,25.50
2018-07-20T10:54:20.222Z,25.10
2018-07-20T10:56:49.502Z,25.90
2018-07-20T10:59:19.314Z,26.60
2018-07-20T11:01:48.515Z,26.80
2018-07-20T11:04:18.524Z,26.90
2018-07-20T11:06:47.742Z,26.50
2018-07-20T11:09:16.874Z,26.90
2018-07-20T11:11:46.113Z,26.20
2018-07-20T11:14:15.243Z,25.60
2018-07-20T11:16:44.448Z,26.30
2018-07-20T11:19:13.543Z,26.80
2018-07-20T11:21:42.712Z,26.90
2018-07-20T11:24:11.954Z,26.80
2018-07-20T11:26:41.134Z,27.60
2018-07-20T11:29:10.401Z,27.50
2018-07-20T11:31:39.592Z,27.30
2018-07-20T11:34:08.856Z,27.30
2018-07-20T11:36:38.017Z,27.30
2018-07-20T11:39:08.908Z,27.50
2018-07-20T11:41:38.779Z,27.20
2018-07-20T11:44:08.440Z,27.00
2018-07-20T11:46:37.556Z,26.80
2018-07-20T11:49:06.737Z,26.90
2018-07-20T11:51:36.048Z,27.50
2018-07-20T11:54:05.163Z,27.40
2018-07-20T11:56:34.314Z,27.40
2018-07-20T11:59:03.702Z,27.10
2018-07-20T12:01:32.849Z,27.30
2018-07-20T12:04:02.046Z,27.50
2018-07-20T12:06:31.175Z,27.90
2018-07-20T12:09:00.316Z,27.60
2018-07-20T12:11:29.507Z,27.20
2018-07-20T12:13:58.633Z,27.40
2018-07-20T12:16:27.767Z,27.20
2018-07-20T12:18:56.990Z,26.90
2018-07-20T12:21:26.094Z,27.50
2018-07-20T12:23:55.219Z,27.50
2018-07-20T12:28:53.167Z,27.60
2018-07-20T12:31:23.332Z,28.00
2018-07-20T12:33:52.732Z,28.50
2018-07-20T12:36:22.010Z,28.40
2018-07-20T12:38:51.186Z,28.60
2018-07-20T12:41:20.377Z,29.10
2018-07-20T12:43:49.519Z,28.80
2018-07-20T12:46:18.678Z,28.70
2018-07-20T12:48:47.914Z,28.90
2018-07-20T12:51:17.054Z,29.00
2018-07-20T12:53:46.320Z,29.00
2018-07-20T12:56:15.596Z,28.90
2018-07-20T12:58:44.830Z,28.60
2018-07-20T13:01:13.947Z,28.70
2018-07-20T13:03:43.105Z,29.30
2018-07-20T13:06:12.269Z,29.20
2018-07-20T13:08:41.476Z,29.10
2018-07-20T13:11:10.708Z,29.30
2018-07-20T13:16:08.665Z,29.50
2018-07-20T13:18:37.804Z,29.00
2018-07-20T13:21:07.316Z,29.30
2018-07-20T13:23:36.503Z,29.00
2018-07-20T13:26:05.892Z,29.70
2018-07-20T13:28:35.067Z,29.40
2018-07-20T13:31:04.304Z,29.50
2018-07-20T13:36:02.494Z,29.40
2018-07-20T13:38:31.701Z,29.60
2018-07-20T13:41:00.885Z,29.90
2018-07-20T13:43:30.104Z,30.20
2018-07-20T13:45:59.269Z,30.00
2018-07-20T13:48:28.479Z,30.00
2018-07-20T13:50:57.744Z,29.50
2018-07-20T13:53:26.965Z,29.30
2018-07-20T13:55:56.199Z,29.70
2018-07-20T13:58:25.383Z,29.80
2018-07-20T14:00:54.523Z,29.70
2018-07-20T14:03:23.888Z,29.30
2018-07-20T14:05:52.979Z,29.80
2018-07-20T14:08:22.209Z,29.80
2018-07-20T14:10:52.150Z,29.70
2018-07-20T14:13:21.305Z,28.60
2018-07-20T14:15:50.557Z,27.70
2018-07-20T14:18:19.698Z,27.30
2018-07-20T14:20:48.861Z,27.20
2018-07-20T14:23:18.017Z,26.80
2018-07-20T14:25:47.188Z,26.80
2018-07-20T14:28:16.336Z,26.70
2018-07-20T14:30:45.628Z,26.80
2018-07-20T14:33:14.848Z,26.90
2018-07-20T14:35:44.098Z,26.60
2018-07-20T14:38:13.224Z,26.80
2018-07-20T14:40:43.092Z,26.70
2018-07-20T14:43:12.390Z,26.60
2018-07-20T14:45:41.595Z,26.60
2018-07-20T14:48:10.875Z,26.50
2018-07-20T14:50:40.125Z,26.20
2018-07-20T14:53:09.359Z,25.60
2018-07-20T14:55:38.548Z,25.50
2018-07-20T14:58:07.733Z,25.20
2018-07-20T15:00:36.864Z,25.00
2018-07-20T15:03:06.176Z,24.80
2018-07-20T15:08:04.072Z,24.60
2018-07-20T15:10:33.240Z,24.40
2018-07-20T15:13:02.409Z,24.20
2018-07-20T15:15:31.544Z,24.30
2018-07-20T15:18:00.743Z,24.30
2018-07-20T15:20:29.903Z,24.70
2018-07-20T15:23:00.529Z,25.10
2018-07-20T15:25:29.769Z,25.30
2018-07-20T15:27:59.001Z,25.00
2018-07-20T15:30:28.241Z,24.80
2018-07-20T15:32:57.435Z,25.10
2018-07-20T15:35:26.671Z,24.70
2018-07-20T15:37:55.822Z,24.40
2018-07-20T15:40:24.967Z,24.20
2018-07-20T15:42:54.331Z,24.40
2018-07-20T15:45:23.528Z,24.40
2018-07-20T15:47:52.762Z,24.80
2018-07-20T15:50:21.933Z,24.80
2018-07-20T15:53:36.281Z,24.90
2018-07-20T15:55:20.224Z,24.70
2018-07-20T15:57:49.389Z,24.60
2018-07-20T16:00:18.605Z,24.60
2018-07-20T16:02:47.866Z,24.60
2018-07-20T16:05:17.057Z,24.50
2018-07-20T16:07:46.278Z,24.40
2018-07-20T16:12:44.326Z,24.20
2018-07-20T16:15:13.498Z,24.30
2018-07-20T16:17:42.629Z,24.30
2018-07-20T16:20:11.844Z,24.30
2018-07-20T16:22:41.004Z,24.40
2018-07-20T16:25:10.210Z,24.20
2018-07-20T16:27:39.341Z,24.20
2018-07-20T16:30:08.788Z,24.10
2018-07-20T16:32:37.935Z,24.00
2018-07-20T16:35:07.392Z,24.10
2018-07-20T16:37:36.572Z,24.10
2018-07-20T16:40:06.302Z,24.10
2018-07-20T16:42:35.451Z,23.80
2018-07-20T16:45:04.881Z,23.70
2018-07-20T16:47:33.995Z,23.70
2018-07-20T16:50:03.189Z,23.70
2018-07-20T16:52:32.312Z,23.40
2018-07-20T16:55:01.462Z,23.40
2018-07-20T16:59:59.366Z,23.00
2018-07-20T17:02:28.492Z,22.90
2018-07-20T17:04:57.740Z,23.00
2018-07-20T17:07:26.879Z,23.00
2018-07-20T17:09:55.985Z,23.00
2018-07-20T17:12:25.100Z,23.20
2018-07-20T17:22:21.317Z,22.60
2018-07-20T17:24:50.553Z,22.60
2018-07-20T17:27:19.700Z,22.40
2018-07-20T17:29:48.989Z,22.40
2018-07-20T17:32:18.155Z,22.30
2018-07-20T17:34:47.296Z,22.30
2018-07-20T17:37:16.461Z,22.20
2018-07-20T17:39:45.600Z,22.10
2018-07-20T17:42:14.844Z,21.80
2018-07-20T17:44:43.983Z,21.40
2018-07-20T17:47:13.139Z,21.20
2018-07-20T17:49:42.364Z,21.10
2018-07-20T17:52:11.651Z,21.00
2018-07-20T17:54:40.877Z,20.90
2018-07-20T17:57:10.045Z,20.90
2018-07-20T17:59:39.215Z,21.00
2018-07-20T18:02:08.581Z,20.90
2018-07-20T18:04:37.728Z,20.80
2018-07-20T18:07:06.928Z,20.70
2018-07-20T18:09:36.649Z,20.70
2018-07-20T18:12:06.253Z,20.70
2018-07-20T18:14:35.380Z,20.60
2018-07-20T18:17:04.553Z,20.60
2018-07-20T18:19:33.707Z,20.60
2018-07-20T18:22:02.882Z,20.60
2018-07-20T18:24:32.113Z,20.60
2018-07-20T18:27:01.389Z,20.60
2018-07-20T18:29:30.545Z,20.50
2018-07-20T18:31:59.715Z,20.30
2018-07-20T18:34:28.872Z,20.20
2018-07-20T18:36:58.052Z,20.00
2018-07-20T18:39:27.269Z,20.00
2018-07-20T18:41:56.448Z,19.90
2018-07-20T18:44:25.547Z,19.80
2018-07-20T18:46:54.805Z,19.80
2018-07-20T18:49:23.964Z,19.70
2018-07-20T18:51:53.140Z,19.70
2018-07-20T18:54:22.291Z,19.60
2018-07-20T18:56:51.414Z,19.60
2018-07-20T18:59:21.113Z,19.50
2018-07-20T19:01:50.271Z,19.50
2018-07-20T19:04:19.368Z,19.40
2018-07-20T19:06:48.651Z,19.30
2018-07-20T19:09:17.830Z,19.30
2018-07-20T19:11:47.826Z,19.20
2018-07-20T19:14:16.985Z,19.20
2018-07-20T19:19:14.796Z,19.00
2018-07-20T19:21:44.008Z,19.00
2018-07-20T19:24:13.253Z,19.00
2018-07-20T19:26:42.482Z,18.90
2018-07-20T19:29:11.709Z,18.80
2018-07-20T19:31:40.925Z,18.70
2018-07-20T19:34:10.175Z,18.70
2018-07-20T19:36:39.349Z,18.70
2018-07-20T19:39:10.837Z,18.60
2018-07-20T19:41:40.356Z,18.50
2018-07-20T19:44:09.656Z,18.50
2018-07-20T19:46:38.860Z,18.50
2018-07-20T19:49:08.063Z,18.40
2018-07-20T19:51:37.243Z,18.40
2018-07-20T19:54:06.483Z,18.20
2018-07-20T19:56:35.652Z,18.10
2018-07-20T19:59:05.273Z,18.00
2018-07-20T20:01:34.473Z,17.90
2018-07-20T20:04:03.603Z,17.90
2018-07-20T20:06:32.744Z,17.80
2018-07-20T20:09:02.122Z,17.70
2018-07-20T20:11:32.124Z,17.70
2018-07-20T20:14:01.324Z,17.60
2018-07-20T20:16:30.474Z,17.50
2018-07-20T20:18:59.692Z,17.50
2018-07-20T20:21:28.819Z,17.50
2018-07-20T20:23:57.972Z,17.50
2018-07-20T20:26:27.209Z,17.50
2018-07-20T20:28:56.347Z,17.50
2018-07-20T20:31:25.606Z,17.50
2018-07-20T20:33:54.768Z,17.50
2018-07-20T20:36:23.926Z,17.40
2018-07-20T20:38:53.064Z,17.50
2018-07-20T20:41:22.241Z,17.60
2018-07-20T20:43:51.433Z,17.70
2018-07-20T20:46:20.533Z,17.70
2018-07-20T20:48:49.677Z,17.70
2018-07-20T20:51:18.876Z,17.80
2018-07-20T20:53:48.064Z,17.80
2018-07-20T20:56:17.201Z,17.90
2018-07-20T20:58:46.298Z,17.90
2018-07-20T21:01:15.501Z,18.00
2018-07-20T21:03:44.656Z,17.90
2018-07-20T21:06:13.918Z,17.90
2018-07-20T21:08:43.101Z,17.90
2018-07-20T21:13:41.033Z,17.80
2018-07-20T21:16:10.190Z,17.80
2018-07-20T21:18:39.439Z,17.70
2018-07-20T21:21:08.696Z,17.70
2018-07-20T21:23:37.812Z,17.70
2018-07-20T21:26:06.948Z,17.60
2018-07-20T21:28:36.075Z,17.60
2018-07-20T21:31:05.193Z,17.50
2018-07-20T21:33:34.384Z,17.60
2018-07-20T21:36:03.509Z,17.60
2018-07-20T21:38:33.435Z,17.50
2018-07-20T21:41:02.608Z,17.50
2018-07-20T21:43:31.885Z,17.60
2018-07-20T21:46:01.004Z,17.60
2018-07-20T21:48:30.152Z,17.60
2018-07-20T21:50:59.300Z,17.60
2018-07-20T21:53:28.441Z,17.50
2018-07-20T21:55:58.044Z,17.40
2018-07-20T21:58:27.220Z,17.50
2018-07-20T22:00:56.499Z,17.50
2018-07-20T22:03:25.628Z,17.50
2018-07-20T22:05:54.773Z,17.50
2018-07-20T22:08:23.955Z,17.40
2018-07-20T22:10:53.103Z,17.30
2018-07-20T22:13:22.225Z,17.40
2018-07-20T22:15:51.343Z,17.40
2018-07-20T22:18:20.502Z,17.40
2018-07-20T22:20:49.643Z,17.40
2018-07-20T22:23:18.839Z,17.50
2018-07-20T22:25:47.984Z,17.60
2018-07-20T22:28:17.257Z,17.60
2018-07-20T22:30:46.482Z,17.70
2018-07-20T22:33:15.679Z,17.80
2018-07-20T22:35:45.406Z,17.90
2018-07-20T22:38:14.566Z,18.00
2018-07-20T22:40:43.677Z,18.00
2018-07-20T22:43:12.944Z,18.00
2018-07-20T22:45:42.056Z,18.00
2018-07-20T22:48:11.355Z,18.10
2018-07-20T22:50:40.615Z,18.20
2018-07-20T22:53:09.760Z,18.20
2018-07-20T22:55:38.903Z,18.20
2018-07-20T22:58:08.013Z,18.30
2018-07-20T23:00:37.139Z,18.30
2018-07-20T23:03:06.453Z,18.30
2018-07-20T23:05:35.581Z,18.30
2018-07-20T23:08:04.738Z,18.30
2018-07-20T23:10:33.830Z,18.20
2018-07-20T23:13:02.999Z,18.10
2018-07-20T23:15:32.157Z,18.10
2018-07-20T23:18:01.325Z,18.00
2018-07-20T23:20:30.589Z,17.90
2018-07-20T23:22:59.727Z,17.90
2018-07-20T23:25:28.847Z,17.90
2018-07-20T23:27:58.060Z,17.90
2018-07-20T23:30:27.230Z,17.80
2018-07-20T23:32:56.484Z,17.80
2018-07-20T23:35:25.623Z,17.80
2018-07-20T23:37:54.839Z,17.80
2018-07-20T23:40:23.967Z,17.70
2018-07-20T23:42:53.072Z,17.70
2018-07-20T23:45:22.180Z,17.60
2018-07-20T23:47:51.393Z,17.50
2018-07-20T23:50:20.642Z,17.40
2018-07-20T23:52:49.833Z,17.40
2018-07-20T23:55:19.156Z,17.40
2018-07-20T23:57:48.265Z,17.30
